createdAt,value
2017-08-18T00:00:29.974Z,24.46
2017-08-18T00:02:57.515Z,24.46
2017-08-18T00:05:25.059Z,24.45
2017-08-18T00:07:52.573Z,24.44
2017-08-18T00:10:20.110Z,24.41
2017-08-18T00:12:48.912Z,24.37
2017-08-18T00:15:16.405Z,24.38
2017-08-18T00:17:43.978Z,24.32
2017-08-18T00:20:11.479Z,24.33
2017-08-18T00:22:38.985Z,24.30
2017-08-18T00:25:06.534Z,24.31
2017-08-18T00:27:34.034Z,24.31
2017-08-18T00:30:01.561Z,24.31
2017-08-18T00:32:29.097Z,24.28
2017-08-18T00:34:56.732Z,24.29
2017-08-18T00:37:24.296Z,24.25
2017-08-18T00:39:51.863Z,24.20
2017-08-18T00:42:19.366Z,24.22
2017-08-18T00:44:46.897Z,24.21
2017-08-18T00:47:14.398Z,24.16
2017-08-18T00:49:41.928Z,24.16
2017-08-18T00:52:09.473Z,24.13
2017-08-18T00:54:36.969Z,24.18
2017-08-18T00:57:04.509Z,24.16
2017-08-18T00:59:32.006Z,24.14
2017-08-18T01:01:59.597Z,24.12
2017-08-18T01:04:27.132Z,24.08
2017-08-18T01:06:54.638Z,24.14
2017-08-18T01:09:22.193Z,24.15
2017-08-18T01:11:49.737Z,24.15
2017-08-18T01:14:17.241Z,24.18
2017-08-18T01:16:44.802Z,24.17
2017-08-18T01:19:12.297Z,24.15
2017-08-18T01:21:39.789Z,24.11
2017-08-18T01:24:07.330Z,24.12
2017-08-18T01:26:34.833Z,24.05
2017-08-18T01:29:02.333Z,24.09
2017-08-18T01:31:29.873Z,24.06
2017-08-18T01:33:57.429Z,23.97
2017-08-18T01:36:24.927Z,24.02
2017-08-18T01:38:52.420Z,23.99
2017-08-18T01:41:19.976Z,23.98
2017-08-18T01:43:47.476Z,23.95
2017-08-18T01:46:14.969Z,23.92
2017-08-18T01:48:42.521Z,23.93
2017-08-18T01:51:10.015Z,23.90
2017-08-18T01:53:37.518Z,23.88
2017-08-18T01:56:05.058Z,23.84
2017-08-18T01:58:32.556Z,23.86
2017-08-18T02:01:00.157Z,23.83
2017-08-18T02:03:27.653Z,23.78
2017-08-18T02:05:55.323Z,23.81
2017-08-18T02:08:22.838Z,23.69
2017-08-18T02:10:50.356Z,23.76
2017-08-18T02:13:17.910Z,23.76
2017-08-18T02:15:45.473Z,23.72
2017-08-18T02:18:12.980Z,23.73
2017-08-18T02:20:40.477Z,23.73
2017-08-18T02:23:08.018Z,23.69
2017-08-18T02:25:35.526Z,23.65
2017-08-18T02:28:03.068Z,23.67
2017-08-18T02:30:30.662Z,23.63
2017-08-18T02:32:58.164Z,23.63
2017-08-18T02:35:25.667Z,23.62
2017-08-18T02:37:53.227Z,23.60
2017-08-18T02:40:20.742Z,23.55
2017-08-18T02:42:48.284Z,23.61
2017-08-18T02:45:15.800Z,23.55
2017-08-18T02:47:43.297Z,23.54
2017-08-18T02:50:10.859Z,23.51
2017-08-18T02:52:38.409Z,23.52
2017-08-18T02:55:05.942Z,23.51
2017-08-18T02:57:33.478Z,23.45
2017-08-18T03:00:01.032Z,23.46
2017-08-18T03:02:28.577Z,23.39
2017-08-18T03:04:56.147Z,23.46
2017-08-18T03:07:23.690Z,23.44
2017-08-18T03:09:51.262Z,23.43
2017-08-18T03:12:18.794Z,23.39
2017-08-18T03:14:46.296Z,23.39
2017-08-18T03:17:13.850Z,23.36
2017-08-18T03:19:41.417Z,23.37
2017-08-18T03:22:08.946Z,23.35
2017-08-18T03:24:36.477Z,23.35
2017-08-18T03:27:04.043Z,23.33
2017-08-18T03:29:31.581Z,23.30
2017-08-18T03:31:59.087Z,23.31
2017-08-18T03:34:26.604Z,23.30
2017-08-18T03:36:54.155Z,23.30
2017-08-18T03:39:21.674Z,23.27
2017-08-18T03:41:49.212Z,23.27
2017-08-18T03:44:16.730Z,23.31
2017-08-18T03:46:44.349Z,23.34
2017-08-18T03:49:11.856Z,23.30
2017-08-18T03:51:39.378Z,23.38
2017-08-18T03:54:06.961Z,23.42
2017-08-18T03:56:34.459Z,23.43
2017-08-18T03:59:01.957Z,23.42
2017-08-18T04:01:29.506Z,23.46
2017-08-18T04:03:57.079Z,23.46
2017-08-18T04:06:24.638Z,23.53
2017-08-18T04:08:52.137Z,23.56
2017-08-18T04:11:19.684Z,23.56
2017-08-18T04:13:47.188Z,23.57
2017-08-18T04:16:14.688Z,23.56
2017-08-18T04:18:42.241Z,23.59
2017-08-18T04:21:09.784Z,23.58
2017-08-18T04:23:37.331Z,23.61
2017-08-18T04:26:04.826Z,23.63
2017-08-18T04:28:32.369Z,23.64
2017-08-18T04:30:59.989Z,23.64
2017-08-18T04:33:27.533Z,23.66
2017-08-18T04:35:55.102Z,23.66
2017-08-18T04:38:22.723Z,23.67
2017-08-18T04:40:50.275Z,23.73
2017-08-18T04:43:17.771Z,23.75
2017-08-18T04:45:45.305Z,23.83
2017-08-18T04:48:12.819Z,23.86
2017-08-18T04:50:40.373Z,23.86
2017-08-18T04:53:07.868Z,23.87
2017-08-18T04:55:35.385Z,23.88
2017-08-18T04:58:02.916Z,23.90
2017-08-18T05:00:30.441Z,23.92
2017-08-18T05:02:57.978Z,23.92
2017-08-18T05:05:25.481Z,23.96
2017-08-18T05:07:53.034Z,23.95
2017-08-18T05:10:20.569Z,23.94
2017-08-18T05:12:48.106Z,24.00
2017-08-18T05:15:15.661Z,23.99
2017-08-18T05:17:43.165Z,24.01
2017-08-18T05:20:10.715Z,24.06
2017-08-18T05:22:38.404Z,24.12
2017-08-18T05:25:05.906Z,24.12
2017-08-18T05:27:33.469Z,24.17
2017-08-18T05:30:01.173Z,24.16
2017-08-18T05:32:28.689Z,24.21
2017-08-18T05:34:56.349Z,24.16
2017-08-18T05:37:23.858Z,24.23
2017-08-18T05:39:51.407Z,24.22
2017-08-18T05:42:18.983Z,24.28
2017-08-18T05:44:47.026Z,24.19
2017-08-18T05:47:14.637Z,24.32
2017-08-18T05:49:42.155Z,24.35
2017-08-18T05:52:09.740Z,24.34
2017-08-18T05:54:37.305Z,24.40
2017-08-18T05:57:04.925Z,24.43
2017-08-18T05:59:32.531Z,24.43
2017-08-18T06:02:00.112Z,24.39
2017-08-18T06:04:27.998Z,24.44
2017-08-18T06:06:55.891Z,24.48
2017-08-18T06:48:49.059Z,24.90
2017-08-18T06:51:16.690Z,24.91
2017-08-18T06:54:06.122Z,24.91
2017-08-18T06:56:35.791Z,24.86
2017-08-18T06:59:04.575Z,24.96
2017-08-18T07:01:33.731Z,24.99
2017-08-18T07:04:02.479Z,24.93
2017-08-18T07:06:30.588Z,25.06
2017-08-18T07:08:58.258Z,25.03
2017-08-18T07:11:25.915Z,25.04
2017-08-18T07:13:53.877Z,25.00
2017-08-18T07:16:21.611Z,25.07
2017-08-18T07:18:49.525Z,25.12
2017-08-18T07:21:17.050Z,25.08
2017-08-18T07:23:44.702Z,25.16
2017-08-18T07:26:12.495Z,25.13
2017-08-18T07:28:40.222Z,25.18
2017-08-18T07:31:07.925Z,25.16
2017-08-18T07:33:35.580Z,25.19
2017-08-18T07:36:03.416Z,25.24
2017-08-18T07:38:36.187Z,25.15
2017-08-18T07:41:09.558Z,25.25
2017-08-18T07:43:41.917Z,25.28
2017-08-18T07:46:09.908Z,25.30
2017-08-18T07:48:42.748Z,25.34
2017-08-18T07:51:11.944Z,25.26
2017-08-18T07:53:49.528Z,25.33
2017-08-18T07:56:19.146Z,25.26
2017-08-18T07:58:47.500Z,25.38
2017-08-18T08:01:19.842Z,25.37
2017-08-18T08:03:48.096Z,25.44
2017-08-18T08:06:15.724Z,25.37
2017-08-18T08:08:51.039Z,25.45
2017-08-18T08:11:18.871Z,25.44
2017-08-18T08:13:49.341Z,25.43
2017-08-18T08:16:17.099Z,25.46
2017-08-18T08:18:44.781Z,25.51
2017-08-18T08:21:12.542Z,25.51
2017-08-18T08:23:43.733Z,25.53
2017-08-18T08:26:11.655Z,25.49
2017-08-18T08:28:41.902Z,25.52
2017-08-18T08:31:10.968Z,25.49
2017-08-18T08:33:43.227Z,25.48
2017-08-18T08:36:11.165Z,25.49
2017-08-18T08:38:39.788Z,25.43
2017-08-18T08:41:09.077Z,25.46
2017-08-18T08:43:36.836Z,25.50
2017-08-18T08:46:06.158Z,25.50
2017-08-18T08:48:34.736Z,25.46
2017-08-18T08:51:05.882Z,25.48
2017-08-18T08:53:40.445Z,25.38
2017-08-18T08:56:10.111Z,25.45
2017-08-18T08:58:40.111Z,25.44
2017-08-18T09:01:09.269Z,25.49
2017-08-18T09:04:00.194Z,25.44
2017-08-18T09:06:35.245Z,25.49
2017-08-18T09:09:04.866Z,25.42
2017-08-18T09:11:32.856Z,25.49
2017-08-18T09:14:01.750Z,25.42
2017-08-18T09:16:36.534Z,25.48
2017-08-18T09:19:09.183Z,25.41
2017-08-18T09:21:39.349Z,25.43
2017-08-18T09:24:06.898Z,25.39
2017-08-18T09:26:35.227Z,25.46
2017-08-18T09:29:03.184Z,25.46
2017-08-18T09:31:30.853Z,25.40
2017-08-18T09:33:58.603Z,25.42
2017-08-18T09:36:29.329Z,25.39
2017-08-18T09:39:01.018Z,25.45
2017-08-18T09:41:31.946Z,25.42
2017-08-18T09:44:03.563Z,25.45
2017-08-18T09:46:33.954Z,25.36
2017-08-18T09:49:04.623Z,25.38
2017-08-18T09:54:10.246Z,25.39
2017-08-18T09:56:40.131Z,25.37
2017-08-18T09:59:17.434Z,25.41
2017-08-18T10:01:46.596Z,25.45
2017-08-18T10:04:20.954Z,25.46
2017-08-18T10:06:49.099Z,25.47
2017-08-18T10:09:18.328Z,25.46
2017-08-18T10:11:47.498Z,25.40
2017-08-18T10:14:15.534Z,25.44
2017-08-18T10:16:43.463Z,25.48
2017-08-18T10:19:11.267Z,25.56
2017-08-18T10:21:43.179Z,25.52
2017-08-18T10:24:10.798Z,25.53
2017-08-18T10:26:40.805Z,25.54
2017-08-18T10:29:08.766Z,25.43
2017-08-18T10:31:38.098Z,25.53
2017-08-18T10:34:09.461Z,25.48
2017-08-18T10:36:37.107Z,25.56
2017-08-18T10:39:06.346Z,25.59
2017-08-18T10:41:35.246Z,25.60
2017-08-18T10:47:24.514Z,25.53
2017-08-18T10:49:52.182Z,25.56
2017-08-18T10:52:19.991Z,25.60
2017-08-18T10:54:47.686Z,25.59
2017-08-18T10:57:15.312Z,25.52
2017-08-18T10:59:44.748Z,25.62
2017-08-18T11:02:13.119Z,25.66
2017-08-18T11:04:41.519Z,25.55
2017-08-18T11:07:09.476Z,25.66
2017-08-18T11:09:43.047Z,25.57
2017-08-18T11:15:52.733Z,25.67
2017-08-18T11:35:30.241Z,25.74
2017-08-18T11:37:58.367Z,25.71
2017-08-18T11:40:26.378Z,25.72
2017-08-18T11:42:54.648Z,25.78
2017-08-18T11:45:24.372Z,25.71
2017-08-18T11:47:55.230Z,25.76
2017-08-18T11:50:23.349Z,25.76
2017-08-18T11:52:51.169Z,25.73
2017-08-18T11:55:19.235Z,25.75
2017-08-18T11:57:46.879Z,25.78
2017-08-18T12:00:21.586Z,25.74
2017-08-18T12:02:49.259Z,25.70
2017-08-18T12:05:17.024Z,25.70
2017-08-18T12:07:44.674Z,25.73
2017-08-18T12:10:12.275Z,25.72
2017-08-18T12:12:39.991Z,25.73
2017-08-18T12:15:07.792Z,25.70
2017-08-18T12:17:37.713Z,25.75
2017-08-18T12:20:26.329Z,25.58
2017-08-18T12:22:54.123Z,25.74
2017-08-18T12:25:22.895Z,25.78
2017-08-18T12:27:50.866Z,25.75
2017-08-18T12:40:27.540Z,25.75
2017-08-18T12:42:55.381Z,25.77
2017-08-18T12:45:27.109Z,25.69
2017-08-18T12:47:57.249Z,25.68
2017-08-18T12:50:25.192Z,25.73
2017-08-18T12:52:53.101Z,25.61
2017-08-18T12:55:21.071Z,25.77
2017-08-18T12:57:50.006Z,25.77
2017-08-18T13:00:18.126Z,25.76
2017-08-18T13:02:56.332Z,25.78
2017-08-18T13:05:24.791Z,25.81
2017-08-18T13:08:19.564Z,25.80
2017-08-18T13:10:47.779Z,25.68
2017-08-18T13:13:15.896Z,25.69
2017-08-18T13:15:45.019Z,25.79
2017-08-18T13:18:23.601Z,25.79
2017-08-18T13:21:07.990Z,25.86
2017-08-18T13:23:36.472Z,25.82
2017-08-18T13:26:08.644Z,25.78
2017-08-18T13:28:38.389Z,25.82
2017-08-18T13:31:07.176Z,25.83
2017-08-18T13:33:35.014Z,25.74
2017-08-18T13:36:03.164Z,25.79
2017-08-18T13:38:34.068Z,25.83
2017-08-18T13:41:04.428Z,25.74
2017-08-18T13:43:32.402Z,25.83
2017-08-18T13:46:10.827Z,25.77
2017-08-18T13:48:43.961Z,25.73
2017-08-18T13:51:11.961Z,25.79
2017-08-18T13:53:40.844Z,25.79
2017-08-18T13:56:08.547Z,25.78
2017-08-18T13:58:41.733Z,25.78
2017-08-18T14:01:09.627Z,25.81
2017-08-18T14:03:37.254Z,25.72
2017-08-18T14:06:04.885Z,25.76
2017-08-18T14:08:32.564Z,25.73
2017-08-18T14:11:00.153Z,25.70
2017-08-18T14:13:27.801Z,25.75
2017-08-18T14:15:55.464Z,25.73
2017-08-18T14:18:23.082Z,25.73
2017-08-18T14:20:50.708Z,25.64
2017-08-18T14:23:18.369Z,25.73
2017-08-18T14:25:45.957Z,25.71
2017-08-18T14:28:13.526Z,25.68
2017-08-18T14:30:41.118Z,25.68
2017-08-18T14:33:08.697Z,25.68
2017-08-18T14:35:36.335Z,25.70
2017-08-18T14:38:04.023Z,25.67
2017-08-18T14:40:40.512Z,25.70
2017-08-18T14:43:08.126Z,25.69
2017-08-18T14:45:35.702Z,25.72
2017-08-18T14:48:03.301Z,25.70
2017-08-18T14:50:30.946Z,25.69
2017-08-18T14:52:58.510Z,25.69
2017-08-18T14:55:26.143Z,25.64
2017-08-18T14:57:53.806Z,25.63
2017-08-18T15:00:21.314Z,25.65
2017-08-18T15:02:48.856Z,25.68
2017-08-18T15:05:16.458Z,25.63
2017-08-18T15:07:44.144Z,25.67
2017-08-18T15:10:11.753Z,25.60
2017-08-18T15:12:39.265Z,25.67
2017-08-18T15:15:07.100Z,25.64
2017-08-18T15:17:34.682Z,25.67
2017-08-18T15:20:02.241Z,25.56
2017-08-18T15:22:29.788Z,25.62
2017-08-18T15:24:57.395Z,25.60
2017-08-18T15:27:25.353Z,25.59
2017-08-18T15:29:52.900Z,25.66
2017-08-18T15:32:20.466Z,25.61
2017-08-18T15:34:48.038Z,25.57
2017-08-18T15:37:15.548Z,25.62
2017-08-18T15:39:43.130Z,25.61
2017-08-18T15:42:10.714Z,25.59
2017-08-18T15:44:38.314Z,25.54
2017-08-18T15:47:06.209Z,25.55
2017-08-18T15:49:33.956Z,25.50
2017-08-18T15:52:01.657Z,25.50
2017-08-18T15:54:29.528Z,25.52
2017-08-18T15:56:59.544Z,25.51
2017-08-18T15:59:27.485Z,25.51
2017-08-18T16:01:55.067Z,25.49
2017-08-18T16:04:22.655Z,25.47
2017-08-18T16:06:50.230Z,25.42
2017-08-18T16:09:17.892Z,25.46
2017-08-18T16:11:45.476Z,25.45
2017-08-18T16:14:13.100Z,25.44
2017-08-18T16:16:40.726Z,25.43
2017-08-18T16:19:08.285Z,25.42
2017-08-18T16:21:35.865Z,25.41
2017-08-18T16:24:04.619Z,25.40
2017-08-18T16:26:32.118Z,25.33
2017-08-18T16:28:59.820Z,25.38
2017-08-18T16:31:27.638Z,25.31
2017-08-18T16:33:56.789Z,25.33
2017-08-18T16:36:24.318Z,25.34
2017-08-18T16:38:51.861Z,25.34
2017-08-18T16:41:19.368Z,25.30
2017-08-18T16:43:46.917Z,25.31
2017-08-18T16:46:14.432Z,25.24
2017-08-18T16:48:41.973Z,25.27
2017-08-18T16:51:09.471Z,25.28
2017-08-18T16:53:37.022Z,25.27
2017-08-18T16:56:04.521Z,25.24
2017-08-18T16:58:32.023Z,25.23
2017-08-18T17:00:59.569Z,25.21
2017-08-18T17:03:27.131Z,25.21
2017-08-18T17:05:54.629Z,25.23
2017-08-18T17:08:22.125Z,25.23
2017-08-18T17:10:49.716Z,25.26
2017-08-18T17:13:17.214Z,25.29
2017-08-18T17:15:44.756Z,25.32
2017-08-18T17:18:12.300Z,25.37
2017-08-18T17:20:39.808Z,25.41
2017-08-18T17:23:07.349Z,25.46
2017-08-18T17:25:34.890Z,25.48
2017-08-18T17:28:02.393Z,25.50
2017-08-18T17:30:29.898Z,25.55
2017-08-18T17:32:57.433Z,25.60
2017-08-18T17:35:25.000Z,25.64
2017-08-18T17:37:52.501Z,25.66
2017-08-18T17:40:20.015Z,25.69
2017-08-18T17:42:47.569Z,25.68
2017-08-18T17:45:15.081Z,25.66
2017-08-18T17:47:42.577Z,25.69
2017-08-18T17:50:10.122Z,25.68
2017-08-18T17:52:37.624Z,25.65
2017-08-18T17:55:05.120Z,25.61
2017-08-18T17:57:32.706Z,25.64
2017-08-18T18:00:00.206Z,25.63
2017-08-18T18:02:27.710Z,25.60
2017-08-18T18:04:55.294Z,25.59
2017-08-18T18:07:22.797Z,25.56
2017-08-18T18:09:50.306Z,25.57
2017-08-18T18:12:17.874Z,25.55
2017-08-18T18:14:45.384Z,25.47
2017-08-18T18:17:12.876Z,25.52
2017-08-18T18:19:40.413Z,25.49
2017-08-18T18:22:07.910Z,25.48
2017-08-18T18:24:35.479Z,25.47
2017-08-18T18:27:02.999Z,25.46
2017-08-18T18:29:30.501Z,25.45
2017-08-18T18:31:58.029Z,25.41
2017-08-18T18:34:25.529Z,25.42
2017-08-18T18:36:53.066Z,25.41
2017-08-18T18:39:20.586Z,25.40
2017-08-18T18:41:48.121Z,25.39
2017-08-18T18:44:15.621Z,25.37
2017-08-18T18:46:43.167Z,25.36
2017-08-18T18:49:10.669Z,25.36
2017-08-18T18:51:38.206Z,25.35
2017-08-18T18:54:05.734Z,25.31
2017-08-18T18:56:33.284Z,25.30
2017-08-18T18:59:00.857Z,25.36
2017-08-18T19:01:28.372Z,25.40
2017-08-18T19:03:55.915Z,25.40
2017-08-18T19:06:23.428Z,25.41
2017-08-18T19:08:51.027Z,25.42
2017-08-18T19:11:18.525Z,25.40
2017-08-18T19:13:46.065Z,25.37
2017-08-18T19:16:13.586Z,25.35
2017-08-18T19:18:41.140Z,25.32
2017-08-18T19:21:08.672Z,25.33
2017-08-18T19:23:36.177Z,25.32
2017-08-18T19:26:03.744Z,25.28
2017-08-18T19:28:31.294Z,25.28
2017-08-18T19:30:58.799Z,25.28
2017-08-18T19:33:26.380Z,25.27
2017-08-18T19:35:53.877Z,25.26
2017-08-18T19:38:21.432Z,25.20
2017-08-18T19:40:48.967Z,25.22
2017-08-18T19:43:16.473Z,25.22
2017-08-18T19:45:44.010Z,25.17
2017-08-18T19:48:11.509Z,25.16
2017-08-18T19:50:39.081Z,25.12
2017-08-18T19:53:06.637Z,25.11
2017-08-18T19:55:34.174Z,25.09
2017-08-18T19:58:01.760Z,25.09
2017-08-18T20:00:29.353Z,24.96
2017-08-18T20:02:56.845Z,25.05
2017-08-18T20:05:24.389Z,25.03
2017-08-18T20:07:51.937Z,25.03
2017-08-18T20:10:19.433Z,25.01
2017-08-18T20:12:46.983Z,25.01
2017-08-18T20:15:14.517Z,25.00
2017-08-18T20:17:42.081Z,25.00
2017-08-18T20:20:09.581Z,24.98
2017-08-18T20:22:37.188Z,24.98
2017-08-18T20:25:04.747Z,24.95
2017-08-18T20:27:32.256Z,24.94
2017-08-18T20:29:59.857Z,24.93
2017-08-18T20:32:27.356Z,24.92
2017-08-18T20:34:54.923Z,24.92
2017-08-18T20:37:22.425Z,24.89
2017-08-18T20:39:49.934Z,24.85
2017-08-18T20:42:17.557Z,24.85
2017-08-18T20:44:45.113Z,24.86
2017-08-18T20:47:12.629Z,24.82
2017-08-18T20:49:40.186Z,24.85
2017-08-18T20:52:07.686Z,24.83
2017-08-18T20:54:35.190Z,24.82
2017-08-18T20:57:02.800Z,24.78
2017-08-18T20:59:30.329Z,24.73
2017-08-18T21:01:57.893Z,24.75
2017-08-18T21:04:25.434Z,24.74
2017-08-18T21:06:53.031Z,24.74
2017-08-18T21:09:20.588Z,24.73
2017-08-18T21:11:48.148Z,24.72
2017-08-18T21:14:15.645Z,24.70
2017-08-18T21:16:43.186Z,24.70
2017-08-18T21:19:10.734Z,24.70
2017-08-18T21:21:38.238Z,24.68
2017-08-18T21:24:05.738Z,24.69
2017-08-18T21:26:33.281Z,24.69
2017-08-18T21:29:00.855Z,24.67
2017-08-18T21:31:28.361Z,24.65
2017-08-18T21:33:55.861Z,24.64
2017-08-18T21:36:23.415Z,24.57
2017-08-18T21:38:50.984Z,24.62
2017-08-18T21:41:18.533Z,24.55
2017-08-18T21:43:46.029Z,24.59
2017-08-18T21:46:13.574Z,24.56
2017-08-18T21:48:41.078Z,24.55
2017-08-18T21:51:08.641Z,24.54
2017-08-18T21:53:36.150Z,24.57
2017-08-18T21:56:03.664Z,24.52
2017-08-18T21:58:31.269Z,24.53
2017-08-18T22:00:58.801Z,24.54
2017-08-18T22:03:26.423Z,24.45
2017-08-18T22:05:54.042Z,24.49
2017-08-18T22:08:21.550Z,24.52
2017-08-18T22:10:49.055Z,24.50
2017-08-18T22:13:16.601Z,24.50
2017-08-18T22:15:44.109Z,24.47
2017-08-18T22:18:11.605Z,24.47
2017-08-18T22:20:39.166Z,24.47
2017-08-18T22:23:06.758Z,24.43
2017-08-18T22:25:34.293Z,24.46
2017-08-18T22:28:01.833Z,24.44
2017-08-18T22:30:29.394Z,24.40
2017-08-18T22:32:57.067Z,24.40
2017-08-18T22:35:24.626Z,24.38
2017-08-18T22:37:52.134Z,24.36
2017-08-18T22:40:19.681Z,24.34
2017-08-18T22:42:47.177Z,24.34
2017-08-18T22:45:14.718Z,24.33
2017-08-18T22:47:42.261Z,24.33
2017-08-18T22:50:09.834Z,24.28
2017-08-18T22:52:37.374Z,24.29
2017-08-18T22:55:04.869Z,24.30
2017-08-18T22:57:32.526Z,24.27
2017-08-18T23:00:00.311Z,24.23
2017-08-18T23:02:27.809Z,24.26
2017-08-18T23:04:55.363Z,24.25
2017-08-18T23:07:22.893Z,24.25
2017-08-18T23:09:50.446Z,24.25
2017-08-18T23:12:17.947Z,24.23
2017-08-18T23:14:45.528Z,24.23
2017-08-18T23:17:13.033Z,24.22
2017-08-18T23:19:40.582Z,24.19
2017-08-18T23:22:08.095Z,24.18
2017-08-18T23:24:35.701Z,24.16
2017-08-18T23:27:03.222Z,24.14
2017-08-18T23:29:30.767Z,24.11
2017-08-18T23:31:58.277Z,24.07
2017-08-18T23:34:25.860Z,24.08
2017-08-18T23:36:53.361Z,24.06
2017-08-18T23:39:20.938Z,24.05
2017-08-18T23:41:48.462Z,24.03
2017-08-18T23:44:15.973Z,24.02
2017-08-18T23:46:43.529Z,24.03
2017-08-18T23:49:11.093Z,23.98
2017-08-18T23:51:38.601Z,24.00
2017-08-18T23:54:06.123Z,23.97
2017-08-18T23:56:33.686Z,23.99
2017-08-18T23:59:01.233Z,23.98
